createdAt,value
2022-11-06T00:01:41.908Z,100280.94
2022-11-06T00:04:08.509Z,100276.56
2022-11-06T00:06:55.355Z,100282.72
2022-11-06T00:09:22.258Z,100279.25
2022-11-06T00:11:50.510Z,100271.63
2022-11-06T00:14:18.067Z,100276.50
2022-11-06T00:16:46.361Z,100283.41
2022-11-06T00:19:13.596Z,100280.78
2022-11-06T00:21:40.712Z,100284.22
2022-11-06T00:24:08.064Z,100286.84
2022-11-06T00:26:35.517Z,100279.63
2022-11-06T00:29:03.275Z,100284.81
2022-11-06T00:31:32.986Z,100277.19
2022-11-06T00:34:01.061Z,100280.66
2022-11-06T00:36:32.795Z,100281.53
2022-11-06T00:39:00.224Z,100276.56
2022-11-06T00:41:27.636Z,100268.09
2022-11-06T00:43:57.351Z,100266.66
2022-11-06T00:46:24.698Z,100259.78
2022-11-06T00:48:53.159Z,100268.34
2022-11-06T00:51:26.765Z,100261.56
2022-11-06T00:53:59.414Z,100266.50
2022-11-06T00:56:26.696Z,100267.53
2022-11-06T00:58:54.193Z,100272.53
2022-11-06T01:01:23.743Z,100261.56
2022-11-06T01:04:02.200Z,100263.16
2022-11-06T01:06:32.901Z,100270.00
2022-11-06T01:09:00.523Z,100265.78
2022-11-06T01:11:52.555Z,100266.03
2022-11-06T01:14:21.489Z,100267.44
2022-11-06T01:16:48.539Z,100261.56
2022-11-06T01:19:17.485Z,100281.88
2022-11-06T01:21:45.979Z,100255.66
2022-11-06T01:24:15.841Z,100256.59
2022-11-06T01:27:04.813Z,100255.47
2022-11-06T01:29:29.700Z,100256.38
2022-11-06T01:31:56.262Z,100254.69
2022-11-06T01:34:22.975Z,100258.94
2022-11-06T01:36:49.568Z,100252.63
2022-11-06T01:39:16.463Z,100248.63
2022-11-06T01:41:50.977Z,100258.19
2022-11-06T01:44:35.500Z,100253.09
2022-11-06T01:47:04.600Z,100250.63
2022-11-06T01:49:35.196Z,100246.28
2022-11-06T01:52:07.883Z,100252.97
2022-11-06T01:54:37.480Z,100249.59
2022-11-06T01:57:04.847Z,100256.59
2022-11-06T01:59:35.958Z,100243.91
2022-11-06T02:02:02.970Z,100245.25
2022-11-06T02:04:34.497Z,100249.50
2022-11-06T02:07:01.189Z,100241.84
2022-11-06T02:09:29.899Z,100244.94
2022-11-06T02:12:14.073Z,100238.34
2022-11-06T02:15:02.781Z,100247.72
2022-11-06T02:17:29.317Z,100240.91
2022-11-06T02:20:02.328Z,100241.84
2022-11-06T02:22:31.540Z,100241.03
2022-11-06T02:25:15.994Z,100244.41
2022-11-06T02:27:48.367Z,100243.59
2022-11-06T02:30:16.906Z,100241.84
2022-11-06T02:32:59.178Z,100237.41
2022-11-06T02:35:41.460Z,100246.00
2022-11-06T02:38:12.677Z,100239.16
2022-11-06T02:40:48.065Z,100237.41
2022-11-06T02:43:16.681Z,100233.66
2022-11-06T02:45:51.026Z,100248.47
2022-11-06T02:48:21.698Z,100246.59
2022-11-06T02:50:51.121Z,100250.84
2022-11-06T02:53:23.145Z,100253.56
2022-11-06T02:55:52.001Z,100260.47
2022-11-06T02:58:25.089Z,100261.41
2022-11-06T03:00:59.143Z,100253.56
2022-11-06T03:03:30.116Z,100252.09
2022-11-06T03:06:20.810Z,100246.81
2022-11-06T03:09:01.463Z,100254.31
2022-11-06T03:11:39.098Z,100265.31
2022-11-06T03:14:14.596Z,100251.63
2022-11-06T03:17:18.572Z,100256.91
2022-11-06T03:19:48.011Z,100251.81
2022-11-06T03:22:33.877Z,100253.56
2022-11-06T03:25:07.654Z,100255.13
2022-11-06T03:27:43.128Z,100248.94
2022-11-06T03:30:16.503Z,100252.47
2022-11-06T03:32:55.420Z,100250.84
2022-11-06T03:35:38.914Z,100249.25
2022-11-06T03:38:07.686Z,100247.38
2022-11-06T03:40:41.459Z,100248.41
2022-11-06T03:43:10.538Z,100254.44
2022-11-06T03:45:40.381Z,100247.47
2022-11-06T03:48:20.050Z,100254.16
2022-11-06T03:51:07.963Z,100246.59
2022-11-06T03:53:46.591Z,100254.16
2022-11-06T03:56:21.033Z,100234.38
2022-11-06T03:58:49.878Z,100243.03
2022-11-06T04:01:23.747Z,100255.63
2022-11-06T04:03:59.836Z,100255.63
2022-11-06T04:06:37.580Z,100248.66
2022-11-06T04:09:25.110Z,100249.59
2022-11-06T04:12:12.035Z,100243.72
2022-11-06T04:14:43.264Z,100245.66
2022-11-06T04:17:12.930Z,100238.88
2022-11-06T04:19:47.004Z,100236.28
2022-11-06T04:22:45.410Z,100233.78
2022-11-06T04:25:55.495Z,100230.03
2022-11-06T04:28:48.056Z,100238.66
2022-11-06T04:31:34.861Z,100243.72
2022-11-06T04:34:09.344Z,100239.53
2022-11-06T04:36:50.517Z,100228.44
2022-11-06T04:39:32.329Z,100230.03
2022-11-06T04:42:43.585Z,100237.66
2022-11-06T04:45:21.289Z,100244.44
2022-11-06T04:47:49.638Z,100245.31
2022-11-06T04:50:19.080Z,100248.94
2022-11-06T04:52:47.347Z,100256.44
2022-11-06T04:55:14.048Z,100255.50
2022-11-06T04:57:40.602Z,100256.31
2022-11-06T05:00:08.116Z,100261.47
2022-11-06T05:02:34.773Z,100264.09
2022-11-06T05:05:01.316Z,100259.00
2022-11-06T05:07:27.903Z,100263.22
2022-11-06T05:09:54.484Z,100278.78
2022-11-06T05:12:21.030Z,100273.69
2022-11-06T05:14:47.584Z,100273.88
2022-11-06T05:17:14.288Z,100279.78
2022-11-06T05:19:40.822Z,100279.78
2022-11-06T05:22:26.080Z,100283.19
2022-11-06T05:24:52.654Z,100284.31
2022-11-06T05:27:19.240Z,100282.28
2022-11-06T05:29:46.297Z,100291.00
2022-11-06T05:32:12.832Z,100289.25
2022-11-06T05:34:39.375Z,100286.50
2022-11-06T05:37:05.951Z,100289.06
2022-11-06T05:39:32.821Z,100286.50
2022-11-06T05:42:00.632Z,100296.97
2022-11-06T05:44:27.696Z,100297.03
2022-11-06T05:46:54.235Z,100291.03
2022-11-06T05:49:20.800Z,100291.13
2022-11-06T05:51:48.003Z,100297.38
2022-11-06T05:54:15.207Z,100299.13
2022-11-06T05:56:41.801Z,100293.16
2022-11-06T05:59:09.506Z,100300.13
2022-11-06T06:01:36.158Z,100307.59
2022-11-06T06:04:05.508Z,100302.19
2022-11-06T06:06:32.562Z,100313.56
2022-11-06T06:08:59.101Z,100310.34
2022-11-06T06:11:25.705Z,100316.44
2022-11-06T06:13:52.281Z,100308.66
2022-11-06T06:16:18.853Z,100319.19
2022-11-06T06:18:45.455Z,100320.06
2022-11-06T06:21:12.030Z,100311.59
2022-11-06T06:23:38.564Z,100322.59
2022-11-06T06:26:05.699Z,100319.34
2022-11-06T06:28:32.934Z,100325.41
2022-11-06T06:31:01.875Z,100324.53
2022-11-06T06:33:28.790Z,100328.06
2022-11-06T06:35:55.384Z,100330.66
2022-11-06T06:38:21.954Z,100325.69
2022-11-06T06:40:48.590Z,100329.97
2022-11-06T06:43:15.182Z,100324.22
2022-11-06T06:45:41.747Z,100329.44
2022-11-06T06:48:09.253Z,100332.19
2022-11-06T06:50:35.848Z,100332.47
2022-11-06T06:53:02.611Z,100325.84
2022-11-06T06:55:29.451Z,100327.19
2022-11-06T06:58:01.943Z,100337.97
2022-11-06T07:00:29.474Z,100337.78
2022-11-06T07:02:56.383Z,100336.09
2022-11-06T07:05:24.012Z,100334.31
2022-11-06T07:07:50.653Z,100332.00
2022-11-06T07:10:17.289Z,100332.09
2022-11-06T07:12:43.950Z,100334.69
2022-11-06T07:15:10.902Z,100331.19
2022-11-06T07:17:37.821Z,100329.63
2022-11-06T07:20:05.676Z,100344.34
2022-11-06T07:22:36.992Z,100344.34
2022-11-06T07:25:05.865Z,100347.59
2022-11-06T07:27:33.629Z,100344.22
2022-11-06T07:30:00.634Z,100341.38
2022-11-06T07:32:28.138Z,100345.63
2022-11-06T07:34:55.465Z,100351.59
2022-11-06T07:37:22.272Z,100357.66
2022-11-06T07:39:49.051Z,100353.59
2022-11-06T07:42:15.628Z,100350.53
2022-11-06T07:44:42.161Z,100359.25
2022-11-06T07:47:08.703Z,100357.03
2022-11-06T07:49:35.305Z,100358.84
2022-11-06T07:52:01.877Z,100359.81
2022-11-06T07:54:28.415Z,100358.31
2022-11-06T07:56:54.992Z,100358.31
2022-11-06T07:59:21.607Z,100356.69
2022-11-06T08:01:48.530Z,100360.03
2022-11-06T08:04:16.628Z,100357.44
2022-11-06T08:06:43.169Z,100357.31
2022-11-06T08:09:10.276Z,100356.56
2022-11-06T08:11:36.987Z,100359.19
2022-11-06T08:14:03.791Z,100364.34
2022-11-06T08:16:30.979Z,100363.41
2022-11-06T08:18:58.714Z,100361.78
2022-11-06T08:21:25.585Z,100371.44
2022-11-06T08:23:52.165Z,100371.91
2022-11-06T08:26:18.943Z,100369.91
2022-11-06T08:28:45.578Z,100369.94
2022-11-06T08:31:12.263Z,100378.44
2022-11-06T08:33:39.634Z,100374.13
2022-11-06T08:36:08.098Z,100367.75
2022-11-06T08:38:35.652Z,100366.16
2022-11-06T08:41:06.836Z,100382.47
2022-11-06T08:43:33.405Z,100376.50
2022-11-06T08:46:00.412Z,100372.13
2022-11-06T08:48:27.630Z,100378.09
2022-11-06T08:50:54.186Z,100369.38
2022-11-06T08:53:20.787Z,100371.47
2022-11-06T08:55:47.764Z,100374.22
2022-11-06T08:58:14.447Z,100382.13
2022-11-06T09:00:41.276Z,100368.50
2022-11-06T09:03:12.872Z,100369.66
2022-11-06T09:05:42.195Z,100368.22
2022-11-06T09:08:09.705Z,100370.78
2022-11-06T09:10:40.559Z,100369.91
2022-11-06T09:13:07.399Z,100371.19
2022-11-06T09:15:34.282Z,100369.84
2022-11-06T09:18:00.941Z,100368.16
2022-11-06T09:20:27.724Z,100362.19
2022-11-06T09:22:55.183Z,100369.41
2022-11-06T09:25:22.243Z,100364.44
2022-11-06T09:27:58.907Z,100366.59
2022-11-06T09:30:29.284Z,100358.84
2022-11-06T09:32:58.867Z,100362.06
2022-11-06T09:35:27.136Z,100364.56
2022-11-06T09:37:56.346Z,100361.22
2022-11-06T09:40:25.971Z,100364.56
2022-11-06T09:43:08.246Z,100369.69
2022-11-06T09:45:38.648Z,100364.72
2022-11-06T09:48:11.582Z,100364.81
2022-11-06T09:50:44.560Z,100368.28
2022-11-06T09:53:20.495Z,100367.50
2022-11-06T09:55:49.375Z,100361.47
2022-11-06T09:58:19.052Z,100357.72
2022-11-06T10:00:45.742Z,100368.72
2022-11-06T10:03:22.068Z,100361.06
2022-11-06T10:05:48.695Z,100365.59
2022-11-06T10:08:17.481Z,100366.19
2022-11-06T10:11:15.125Z,100360.28
2022-11-06T10:13:54.597Z,100366.84
2022-11-06T10:16:49.283Z,100362.25
2022-11-06T10:20:00.111Z,100358.88
2022-11-06T10:23:03.621Z,100357.88
2022-11-06T10:25:46.764Z,100358.81
2022-11-06T10:28:33.461Z,100358.78
2022-11-06T10:31:13.781Z,100353.44
2022-11-06T10:33:50.952Z,100355.91
2022-11-06T10:36:23.642Z,100347.47
2022-11-06T10:38:52.462Z,100349.09
2022-11-06T10:41:22.717Z,100358.44
2022-11-06T10:44:01.249Z,100349.16
2022-11-06T10:46:38.326Z,100353.44
2022-11-06T10:49:20.310Z,100355.81
2022-11-06T10:52:02.208Z,100346.56
2022-11-06T10:55:24.542Z,100344.13
2022-11-06T10:58:25.195Z,100340.00
2022-11-06T11:00:54.426Z,100338.34
2022-11-06T11:03:34.171Z,100327.19
2022-11-06T11:06:01.846Z,100330.06
2022-11-06T11:08:31.366Z,100334.44
2022-11-06T11:11:26.490Z,100323.16
2022-11-06T11:13:56.077Z,100327.47
2022-11-06T11:16:32.235Z,100326.47
2022-11-06T11:19:33.258Z,100320.53
2022-11-06T11:22:05.412Z,100330.88
2022-11-06T11:24:32.735Z,100316.34
2022-11-06T11:27:05.483Z,100319.59
2022-11-06T11:29:50.516Z,100313.25
2022-11-06T11:32:20.105Z,100323.50
2022-11-06T11:34:54.036Z,100319.34
2022-11-06T11:37:34.120Z,100322.03
2022-11-06T11:40:22.669Z,100312.44
2022-11-06T11:42:49.645Z,100315.66
2022-11-06T11:45:20.894Z,100314.84
2022-11-06T11:47:51.334Z,100316.66
2022-11-06T11:50:31.703Z,100313.88
2022-11-06T11:53:18.493Z,100317.34
2022-11-06T11:55:48.333Z,100317.06
2022-11-06T11:58:28.025Z,100311.00
2022-11-06T12:00:59.373Z,100310.00
2022-11-06T12:03:34.056Z,100306.28
2022-11-06T12:06:18.540Z,100315.63
2022-11-06T12:08:52.468Z,100309.03
2022-11-06T12:11:23.912Z,100316.44
2022-11-06T12:14:21.232Z,100307.34
2022-11-06T12:16:54.878Z,100312.53
2022-11-06T12:19:24.461Z,100314.09
2022-11-06T12:22:00.144Z,100306.25
2022-11-06T12:25:01.916Z,100303.94
2022-11-06T12:27:37.119Z,100296.16
2022-11-06T12:30:11.845Z,100297.00
2022-11-06T12:33:05.740Z,100304.75
2022-11-06T12:35:42.182Z,100309.66
2022-11-06T12:39:05.210Z,100300.19
2022-11-06T12:41:37.949Z,100291.03
2022-11-06T12:44:10.990Z,100293.41
2022-11-06T12:47:14.339Z,100304.66
2022-11-06T12:50:10.962Z,100301.38
2022-11-06T12:53:10.681Z,100299.66
2022-11-06T12:56:15.529Z,100300.31
2022-11-06T12:59:01.137Z,100301.53
2022-11-06T13:01:43.239Z,100304.75
2022-11-06T13:04:34.631Z,100301.16
2022-11-06T13:07:16.353Z,100300.41
2022-11-06T13:09:48.059Z,100306.09
2022-11-06T13:12:48.768Z,100307.19
2022-11-06T13:15:18.199Z,100313.91
2022-11-06T13:17:58.229Z,100310.41
2022-11-06T13:20:33.429Z,100306.78
2022-11-06T13:23:16.587Z,100306.94
2022-11-06T13:25:54.520Z,100302.56
2022-11-06T13:29:03.075Z,100303.56
2022-11-06T13:31:40.688Z,100302.47
2022-11-06T13:34:14.019Z,100309.34
2022-11-06T13:36:40.870Z,100300.38
2022-11-06T13:39:15.393Z,100302.16
2022-11-06T13:41:41.989Z,100303.56
2022-11-06T13:44:17.042Z,100308.50
2022-11-06T13:47:14.765Z,100310.19
2022-11-06T13:49:55.962Z,100310.19
2022-11-06T13:52:35.604Z,100306.69
2022-11-06T13:55:05.452Z,100303.13
2022-11-06T13:57:59.513Z,100294.41
2022-11-06T14:00:46.579Z,100294.34
2022-11-06T14:03:45.958Z,100294.16
2022-11-06T14:06:21.218Z,100293.41
2022-11-06T14:08:56.674Z,100295.06
2022-11-06T14:11:29.824Z,100291.59
2022-11-06T14:14:11.559Z,100287.81
2022-11-06T14:16:40.197Z,100275.72
2022-11-06T14:19:29.880Z,100284.34
2022-11-06T19:20:43.094Z,100289.75
2022-11-06T19:23:14.361Z,100290.75
2022-11-06T19:25:42.307Z,100287.63
2022-11-06T19:28:09.863Z,100282.53
2022-11-06T19:30:37.017Z,100279.25
2022-11-06T19:33:04.281Z,100272.28
2022-11-06T19:35:32.453Z,100270.59
2022-11-06T19:37:59.192Z,100277.38
2022-11-06T19:40:26.303Z,100287.72
2022-11-06T19:42:52.921Z,100283.41
2022-11-06T19:45:19.778Z,100284.00
2022-11-06T19:47:46.385Z,100282.00
2022-11-06T19:50:13.005Z,100278.97
2022-11-06T19:52:47.355Z,100283.13
2022-11-06T19:55:26.394Z,100275.75
2022-11-06T19:57:54.752Z,100281.06
2022-11-06T20:00:21.376Z,100290.31
2022-11-06T20:02:51.343Z,100281.72
2022-11-06T20:05:18.315Z,100285.28
2022-11-06T20:07:45.180Z,100279.97
2022-11-06T20:10:11.721Z,100280.84
2022-11-06T20:12:38.485Z,100278.31
2022-11-06T20:15:05.987Z,100282.63
2022-11-06T20:17:32.570Z,100274.44
2022-11-06T20:19:59.137Z,100289.06
2022-11-06T20:22:25.908Z,100287.25
2022-11-06T20:24:52.478Z,100279.97
2022-11-06T20:27:19.375Z,100285.06
2022-11-06T20:29:45.969Z,100288.13
2022-11-06T20:32:17.689Z,100280.06
2022-11-06T20:34:45.695Z,100276.47
2022-11-06T20:37:12.717Z,100279.81
2022-11-06T20:39:41.471Z,100279.47
2022-11-06T20:42:08.323Z,100283.19
2022-11-06T20:44:35.029Z,100274.00
2022-11-06T20:47:01.631Z,100273.00
2022-11-06T20:49:28.183Z,100265.25
2022-11-06T20:52:13.233Z,100256.03
2022-11-06T20:54:46.330Z,100259.44
2022-11-06T20:57:15.041Z,100248.09
2022-11-06T20:59:41.818Z,100259.31
2022-11-06T21:02:10.971Z,100255.56
2022-11-06T21:04:37.837Z,100253.22
2022-11-06T21:07:04.444Z,100252.00
2022-11-06T21:09:31.080Z,100252.81
2022-11-06T21:11:57.699Z,100255.16
2022-11-06T21:14:24.257Z,100258.59
2022-11-06T21:16:50.802Z,100262.16
2022-11-06T21:19:17.516Z,100252.88
2022-11-06T21:21:44.057Z,100251.00
2022-11-06T21:24:10.609Z,100257.81
2022-11-06T21:26:38.394Z,100252.75
2022-11-06T21:29:07.600Z,100251.16
2022-11-06T21:31:34.918Z,100254.41
2022-11-06T21:34:03.881Z,100246.78
2022-11-06T21:36:33.839Z,100250.44
2022-11-06T21:39:08.150Z,100248.53
2022-11-06T21:41:35.239Z,100243.31
2022-11-06T21:44:05.504Z,100244.84
2022-11-06T21:46:32.758Z,100240.81
2022-11-06T21:48:59.955Z,100238.28
2022-11-06T21:51:29.383Z,100240.00
2022-11-06T21:54:15.286Z,100236.81
2022-11-06T21:56:42.988Z,100241.97
2022-11-06T21:59:12.474Z,100234.50
2022-11-06T22:01:40.903Z,100236.88
2022-11-06T22:04:08.189Z,100233.47
2022-11-06T22:06:34.957Z,100230.91
2022-11-06T22:09:02.811Z,100237.13
2022-11-06T22:11:32.195Z,100232.31
2022-11-06T22:14:01.758Z,100234.72
2022-11-06T22:16:31.430Z,100235.53
2022-11-06T22:18:58.440Z,100236.41
2022-11-06T22:21:27.709Z,100235.59
2022-11-06T22:23:54.777Z,100237.41
2022-11-06T22:26:23.937Z,100238.06
2022-11-06T22:28:59.299Z,100233.84
2022-11-06T22:31:27.425Z,100235.06
2022-11-06T22:33:54.395Z,100230.81
2022-11-06T22:36:22.326Z,100222.03
2022-11-06T22:38:49.098Z,100231.66
2022-11-06T22:41:17.961Z,100234.44
2022-11-06T22:43:45.088Z,100232.50
2022-11-06T22:46:17.775Z,100230.03
2022-11-06T22:48:45.343Z,100227.56
2022-11-06T22:51:17.703Z,100225.22
2022-11-06T22:53:44.333Z,100225.13
2022-11-06T22:56:14.539Z,100225.22
2022-11-06T22:58:42.013Z,100229.44
2022-11-06T23:01:10.214Z,100227.00
2022-11-06T23:03:37.265Z,100226.03
2022-11-06T23:06:06.757Z,100231.16
2022-11-06T23:08:34.389Z,100231.22
2022-11-06T23:11:11.614Z,100227.22
2022-11-06T23:13:38.859Z,100232.19
2022-11-06T23:16:11.889Z,100229.53
2022-11-06T23:18:39.516Z,100228.56
2022-11-06T23:21:18.861Z,100233.91
2022-11-06T23:23:48.504Z,100228.81
2022-11-06T23:26:17.270Z,100232.31
2022-11-06T23:28:44.778Z,100232.53
2022-11-06T23:31:13.246Z,100224.69
2022-11-06T23:33:39.802Z,100233.38
2022-11-06T23:36:08.127Z,100236.84
2022-11-06T23:38:34.788Z,100230.84
2022-11-06T23:41:26.308Z,100234.25
2022-11-06T23:43:53.733Z,100244.66
2022-11-06T23:46:22.049Z,100244.66
2022-11-06T23:48:48.621Z,100251.50
2022-11-06T23:51:15.467Z,100248.72
2022-11-06T23:53:42.067Z,100253.16
2022-11-06T23:56:12.984Z,100247.47
2022-11-06T23:58:40.665Z,100245.59
